Latest Weather Observations for Goulburn Airport

IDN60901

Issued at 6:41 pm EDT Tuesday 17 October 2017 (issued every 10 minutes, with the page automatically refreshed every 10 minutes)

About weather observations | Map of Canberra area stations | Latest observations for Canberra area | Other Formats
Station Details ID: 070330 Name: GOULBURN AIRPORT AWS Lat: -34.81 Lon: 149.73 Height: 640.0 m
Data from the previous 72 hours. | See also: Recent months at Goulburn Airport
Date/Time
EDT
Temp
°C
App
Temp
°C
Dew
Point
°C
Rel
Hum
%
Delta-T
°C
Wind Press
QNH
hPa
Press
MSL
hPa
Rain since
9am
mm
Dir  Spd
km/h
Gust
km/h
Spd
kts
Gust
kts
17/06:30pm 21.3 16.3 7.9 42 7.2 ENE 24 33 13 18 1025.6 1025.0 0.0
17/06:00pm 22.3 16.7 5.3 33 8.7 ENE 24 37 13 20 1025.4 1024.8 0.0
17/05:30pm 23.2 17.7 6.1 33 9.0 ENE 24 32 13 17 1025.1 1024.4 0.0
17/05:00pm 23.1 17.5 5.5 32 9.1 E 24 37 13 20 1024.9 1024.2 0.0
17/04:30pm 23.8 18.3 6.1 32 9.3 ENE 24 35 13 19 1024.9 1024.2 0.0
17/04:00pm 24.3 19.5 5.6 30 9.8 ENE 20 30 11 16 1024.9 1024.2 0.0
17/03:30pm 24.5 19.1 4.3 27 10.4 NE 22 30 12 16 1025.0 1024.3 0.0
17/03:00pm 25.2 20.6 5.4 28 10.3 E 19 30 10 16 1025.1 1024.4 0.0
17/02:30pm 24.1 20.3 5.9 31 9.6 E 15 24 8 13 1025.6 1025.0 0.0
17/02:00pm 23.7 19.1 5.6 31 9.4 ENE 19 30 10 16 1025.9 1025.3 0.0
17/01:30pm 23.4 20.3 7.1 35 8.7 ENE 13 22 7 12 1026.2 1025.6 0.0
17/01:00pm 23.2 18.9 6.9 35 8.6 ENE 19 30 10 16 1026.7 1026.1 0.0
17/12:30pm 22.1 17.5 6.7 37 8.1 NE 20 30 11 16 1027.1 1026.5 0.0
17/12:00pm 21.7 16.4 6.8 38 7.8 ENE 24 30 13 16 1027.3 1026.7 0.0
17/11:30am 20.4 15.3 6.0 39 7.4 NE 22 33 12 18 1027.7 1027.1 0.0
17/11:00am 20.0 15.9 7.7 45 6.5 ENE 19 32 10 17 1027.8 1027.2 0.0
17/10:30am 18.3 13.3 6.5 46 6.1 NE 22 32 12 17 1028.0 1027.5 0.0
17/10:00am 17.8 13.2 8.1 53 5.1 NE 22 30 12 16 1028.1 1027.6 0.0
17/09:30am 15.9 11.9 8.4 61 3.9 NE 19 26 10 14 1028.0 1027.5 0.0
17/09:00am 14.8 10.9 9.4 70 2.9 NE 20 28 11 15 1027.9 1027.3 0.0
17/08:30am 12.0 10.6 9.7 86 1.2 ESE 7 13 4 7 1028.0 1027.5 0.0
17/08:00am 9.5 8.1 9.4 99 0.1 S 7 9 4 5 1028.1 1027.6 0.0
17/07:30am 6.4 4.8 6.3 99 0.0 SSE 4 7 2 4 1027.9 1027.3 0.0
17/07:27am 6.1 4.4 6.0 99 0.0 SSE 4 7 2 4 1027.9 1027.3 0.0
17/07:00am 3.6 1.1 3.5 99 0.0 SSE 6 7 3 4 1027.7 1027.1 0.0
17/06:30am 2.8 0.1 2.7 99 0.0 SSE 6 6 3 3 1027.6 1027.0 0.0
17/06:00am 2.8 0.1 2.7 99 0.0 SSE 6 7 3 4 1027.5 1026.9 0.0
17/05:30am 3.3 1.1 3.2 99 0.0 SSE 4 7 2 4 1027.5 1026.9 0.0
17/05:00am 3.6 2.2 3.3 98 0.1 CALM 0 0 0 0 1027.4 1026.8 0.0
17/04:34am 4.1 1.6 3.8 98 0.1 SE 6 7 3 4 1027.3 1026.7 0.0
17/04:30am 3.5 0.9 3.2 98 0.1 SE 6 7 3 4 1027.3 1026.7 0.0
17/04:05am 4.4 1.8 4.0 97 0.2 SSE 7 11 4 6 1027.3 1026.7 0.0
17/04:00am 4.7 2.1 4.1 96 0.3 SSW 7 9 4 5 1027.3 1026.7 0.0
17/03:30am 5.5 3.6 5.1 97 0.2 SE 4 9 2 5 1027.3 1026.7 0.0
17/03:00am 6.2 3.5 5.8 97 0.2 SSW 9 11 5 6 1027.5 1026.9 0.0
17/02:30am 6.4 4.1 5.8 96 0.3 S 7 7 4 4 1027.7 1027.1 0.0
17/02:00am 7.1 5.2 6.5 96 0.3 S 6 7 3 4 1028.1 1027.6 0.0
17/01:30am 7.0 4.7 5.9 93 0.5 SSW 7 7 4 4 1028.1 1027.6 0.0
17/01:20am 6.8 4.5 4.6 86 1.0 S 6 7 3 4 1028.3 1027.7 0.0
17/01:00am 9.2 7.3 7.6 90 0.8 SE 7 9 4 5 1028.4 1027.8 0.0
17/12:35am 10.1 8.4 8.4 89 0.9 ESE 7 9 4 5 1028.4 1027.8 0.0
17/12:30am 10.0 8.2 8.1 88 1.0 ESE 7 9 4 5 1028.4 1027.8 0.0
17/12:15am 10.9 10.2 8.7 86 1.1 ESE 2 7 1 4 1028.5 1027.9 0.0
17/12:05am 11.3 10.4 9.2 87 1.1 SE 4 9 2 5 1028.5 1027.9 0.0
17/12:00am 11.2 10.6 9.1 87 1.1 SE 2 7 1 4 1028.6 1028.0 0.0
 
Date/Time
EDT
Temp
°C
App
Temp
°C
Dew
Point
°C
Rel
Hum
%
Delta-T
°C
Wind Press
QNH
hPa
Press
MSL
hPa
Rain since
9am
mm
Dir  Spd
km/h
Gust
km/h
Spd
kts
Gust
kts
16/11:30pm 10.6 10.3 8.7 88 1.0 CALM 0 6 0 3 1028.6 1028.0 0.0
16/11:00pm 11.7 9.3 8.6 81 1.6 ENE 11 13 6 7 1028.5 1027.9 0.0
16/10:30pm 12.5 9.4 8.8 78 1.9 ENE 15 20 8 11 1028.3 1027.7 0.0
16/10:00pm 13.2 9.8 9.3 77 2.0 ENE 17 20 9 11 1028.1 1027.6 0.0
16/09:30pm 13.7 10.4 9.7 77 2.1 ENE 17 22 9 12 1027.9 1027.3 0.0
16/09:00pm 14.3 10.9 10.5 78 2.0 ENE 19 24 10 13 1027.5 1026.9 0.0
16/08:30pm 15.0 11.5 10.8 76 2.3 E 20 26 11 14 1027.1 1026.5 0.0
16/08:00pm 15.7 12.2 10.9 73 2.6 E 20 26 11 14 1026.8 1026.2 0.0
16/07:30pm 16.8 13.3 10.9 68 3.3 E 20 26 11 14 1026.3 1025.7 0.0
16/07:00pm 18.4 13.7 10.8 61 4.2 E 26 32 14 17 1025.9 1025.3 0.0
16/06:30pm 20.0 16.2 9.9 52 5.6 E 20 28 11 15 1025.7 1025.1 0.0
16/06:00pm 21.5 17.5 8.1 42 7.2 E 19 26 10 14 1025.5 1024.9 0.0
16/05:30pm 22.0 17.4 5.8 35 8.4 ENE 19 26 10 14 1025.3 1024.7 0.0
16/05:00pm 22.7 18.2 6.0 34 8.7 NE 19 26 10 14 1025.1 1024.4 0.0
16/04:30pm 22.7 18.8 6.9 36 8.4 ENE 17 24 9 13 1025.2 1024.5 0.0
16/04:00pm 22.6 18.0 6.4 35 8.5 ENE 20 30 11 16 1025.4 1024.8 0.0
16/03:30pm 22.5 18.0 6.3 35 8.5 ENE 19 28 10 15 1025.7 1025.1 0.0
16/03:00pm 22.6 19.0 6.8 36 8.3 ENE 15 20 8 11 1025.9 1025.3 0.0
16/02:30pm 22.3 17.7 6.5 36 8.3 ENE 20 35 11 19 1026.2 1025.6 0.0
16/02:00pm 22.1 18.3 7.5 39 7.8 ENE 17 26 9 14 1026.7 1026.1 0.0
16/01:30pm 21.8 17.6 7.6 40 7.6 NE 19 26 10 14 1027.0 1026.4 0.0
16/01:00pm 21.4 17.2 7.6 41 7.3 NE 19 30 10 16 1027.4 1026.8 0.0
16/12:30pm 20.8 16.2 8.1 44 6.8 NE 22 30 12 16 1027.7 1027.1 0.0
16/12:00pm 20.3 15.7 8.3 46 6.4 ENE 22 33 12 18 1028.1 1027.6 0.0
16/11:30am 19.4 15.5 8.7 50 5.8 E 19 28 10 15 1028.3 1027.7 0.0
16/11:00am 18.2 14.2 8.2 52 5.3 NE 19 32 10 17 1028.8 1028.2 0.0
16/10:30am 17.3 13.2 8.7 57 4.6 NE 20 30 11 16 1028.9 1028.3 0.0
16/10:00am 17.3 13.6 10.0 62 4.0 ENE 20 30 11 16 1028.8 1028.2 0.0
16/09:32am 16.3 12.5 9.9 66 3.5 ENE 20 32 11 17 1028.9 1028.3 0.0
16/09:30am 16.9 13.3 10.5 66 3.5 ENE 20 32 11 17 1028.8 1028.2 0.0
16/09:00am 16.0 12.5 11.0 72 2.7 ENE 20 24 11 13 1028.5 1027.9 0.0
16/08:30am 13.7 10.8 10.9 83 1.5 NE 17 24 9 13 1028.4 1027.8 0.0
16/08:00am 13.0 11.3 11.2 89 1.0 ENE 11 17 6 9 1028.0 1027.5 0.0
16/07:30am 11.8 10.6 11.6 99 0.1 ESE 9 11 5 6 1027.9 1027.3 0.0
16/07:00am 11.0 9.9 10.8 99 0.1 SE 7 9 4 5 1027.6 1027.0 0.0
16/06:30am 9.4 7.9 9.3 99 0.1 SSW 7 9 4 5 1027.1 1026.5 0.0
16/06:00am 8.7 7.2 8.6 99 0.0 SSW 6 9 3 5 1026.9 1026.3 0.0
16/05:30am 10.4 10.1 10.2 99 0.1 S 2 9 1 5 1026.8 1026.2 0.0
16/05:16am 10.0 8.9 9.9 99 0.1 S 6 9 3 5 1026.6 1025.9 0.0
16/05:00am 9.0 8.8 8.9 99 0.1 CALM 0 0 0 0 1026.4 1025.8 0.0
16/04:30am 8.2 7.8 8.1 99 0.0 CALM 0 0 0 0 1026.3 1025.7 0.0
16/04:00am 6.6 5.0 6.5 99 0.0 SW 4 6 2 3 1026.3 1025.7 0.0
16/03:30am 6.2 4.2 6.1 99 0.0 SW 6 7 3 4 1026.4 1025.8 0.0
16/03:00am 5.4 3.2 5.3 99 0.0 SW 6 7 3 4 1026.6 1025.9 0.0
16/02:34am 5.9 3.8 5.8 99 0.0 SE 6 9 3 5 1026.8 1026.2 0.0
16/02:30am 5.8 3.7 5.7 99 0.0 SE 6 7 3 4 1026.7 1026.1 0.0
16/02:28am 5.9 3.8 5.8 99 0.0 SE 6 9 3 5 1026.7 1026.1 0.0
16/02:14am 5.5 3.3 5.2 98 0.1 SE 6 9 3 5 1026.7 1026.1 0.0
16/02:00am 4.8 2.8 4.2 96 0.3 SE 4 7 2 4 1026.9 1026.3 0.0
16/01:41am 6.1 4.0 5.7 97 0.2 SE 6 7 3 4 1026.9 1026.3 0.0
16/01:30am 5.6 3.3 4.9 95 0.3 SE 6 9 3 5 1027.1 1026.5 0.0
16/01:00am 7.4 5.5 6.8 96 0.3 SE 6 7 3 4 1027.2 1026.6 0.0
16/12:30am 8.2 6.5 7.6 96 0.3 SSE 6 9 3 5 1027.2 1026.6 0.0
16/12:00am 9.8 9.2 9.0 95 0.4 ENE 2 9 1 5 1027.1 1026.5 0.0
 
Date/Time
EDT
Temp
°C
App
Temp
°C
Dew
Point
°C
Rel
Hum
%
Delta-T
°C
Wind Press
QNH
hPa
Press
MSL
hPa
Rain since
9am
mm
Dir  Spd
km/h
Gust
km/h
Spd
kts
Gust
kts
15/11:30pm 9.8 9.5 8.6 92 0.6 CALM 0 6 0 3 1027.1 1026.5 0.0
15/11:00pm 11.0 10.9 9.6 91 0.7 CALM 0 0 0 0 1027.0 1026.4 0.0
15/10:30pm 12.1 10.1 10.0 87 1.1 NE 11 13 6 7 1026.8 1026.2 0.0
15/10:00pm 11.9 9.7 9.5 85 1.2 NNE 11 13 6 7 1026.7 1026.1 0.0
15/09:30pm 12.6 10.8 9.4 81 1.7 NNE 9 13 5 7 1026.4 1025.8 0.0
15/09:00pm 13.7 12.1 10.1 79 1.9 NE 9 13 5 7 1026.2 1025.6 0.0
15/08:30pm 14.0 12.8 9.6 75 2.3 NNE 6 9 3 5 1025.9 1025.3 0.0
15/08:00pm 14.7 12.2 9.7 72 2.7 NNE 13 17 7 9 1025.5 1024.9 0.0
15/07:30pm 16.3 12.8 10.2 67 3.3 NE 19 24 10 13 1025.1 1024.4 0.0
15/07:00pm 17.9 14.2 9.3 57 4.6 ENE 19 24 10 13 1024.5 1023.9 0.0
15/06:30pm 19.2 15.4 9.1 52 5.5 ENE 19 24 10 13 1024.1 1023.5 0.0
15/06:00pm 19.9 16.0 8.6 48 6.1 ENE 19 24 10 13 1024.0 1023.4 0.0
15/05:30pm 21.0 17.5 8.9 46 6.6 ENE 17 24 9 13 1023.7 1023.0 0.0
15/05:00pm 20.7 17.1 8.4 45 6.6 ENE 17 22 9 12 1023.7 1023.0 0.0
15/04:30pm 21.6 19.0 9.5 46 6.7 NNE 13 20 7 11 1023.6 1022.9 0.0
15/04:00pm 20.4 17.7 9.0 48 6.2 NNE 13 24 7 13 1023.7 1023.0 0.0
15/03:30pm 21.0 18.6 10.2 50 6.0 NNE 13 24 7 13 1023.9 1023.2 0.0
15/03:00pm 20.7 17.9 9.9 50 6.0 NE 15 32 8 17 1024.2 1023.6 0.0
15/02:30pm 20.3 17.7 9.2 49 6.1 NE 13 24 7 13 1024.4 1023.8 0.0
15/02:00pm 19.7 16.8 9.6 52 5.5 NE 15 26 8 14 1024.7 1024.1 0.0
15/01:30pm 19.6 17.2 10.0 54 5.3 NE 13 24 7 13 1025.0 1024.3 0.0
15/01:00pm 18.4 15.3 10.3 59 4.5 N 17 24 9 13 1025.3 1024.7 0.0
15/12:30pm 18.2 15.9 10.3 60 4.4 NNE 13 19 7 10 1025.6 1025.0 0.0
15/12:00pm 16.8 13.5 9.7 63 3.8 ENE 17 24 9 13 1026.0 1025.4 0.0
15/11:30am 15.8 13.2 9.2 65 3.5 NE 13 17 7 9 1026.2 1025.6 0.0
15/11:00am 16.0 13.5 9.7 66 3.4 ENE 13 17 7 9 1026.3 1025.7 0.0
15/10:30am 14.2 12.4 9.6 74 2.4 NE 9 15 5 8 1026.3 1025.7 0.0
15/10:00am 13.4 11.2 9.5 77 2.0 NNE 11 15 6 8 1026.3 1025.7 0.0
15/09:30am 12.8 10.2 9.4 80 1.8 NE 13 19 7 10 1026.3 1025.7 0.0
15/09:00am 12.5 9.1 9.3 81 1.7 NE 17 24 9 13 1026.1 1025.5 0.0
15/08:47am 12.3 9.3 9.3 82 1.6 NE 15 17 8 9 1026.0 1025.4 0.0
15/08:33am 11.9 9.7 9.3 84 1.4 NE 11 15 6 8 1025.8 1025.2 0.0
15/08:30am 12.0 10.2 9.6 85 1.3 NE 9 15 5 8 1025.8 1025.2 0.0
15/08:00am 11.0 9.2 9.3 89 0.9 ENE 9 13 5 7 1025.6 1025.0 0.0
15/07:30am 10.4 8.5 9.2 92 0.6 NE 9 13 5 7 1025.5 1024.9 0.0
15/07:00am 9.8 9.3 9.2 96 0.3 ESE 2 9 1 5 1025.1 1024.4 0.0
15/06:30am 9.3 7.9 8.8 97 0.3 SE 6 7 3 4 1024.9 1024.2 0.0
15/06:00am 9.2 7.2 8.7 97 0.3 SE 9 11 5 6 1024.5 1023.9 0.0
15/05:37am 9.1 7.1 8.5 96 0.3 SE 9 11 5 6 1024.4 1023.8 0.0
15/05:36am 9.0 6.9 8.4 96 0.3 SE 9 11 5 6 1024.4 1023.8 0.0
15/05:30am 8.8 6.7 8.2 96 0.3 SE 9 11 5 6 1024.4 1023.8 0.0
15/05:00am 8.9 7.3 8.6 98 0.2 ESE 7 11 4 6 1024.4 1023.8 0.0
15/04:51am 8.7 6.6 8.3 97 0.2 ESE 9 11 5 6 1024.3 1023.7 0.0
15/04:41am 8.2 5.5 7.4 95 0.4 ESE 11 13 6 7 1024.3 1023.7 0.0
15/04:30am 8.7 6.9 8.1 96 0.3 SE 7 9 4 5 1024.2 1023.6 0.0
15/04:00am 8.2 6.8 7.4 95 0.4 NE 4 7 2 4 1024.3 1023.7 0.0
15/03:30am 7.9 6.1 7.3 96 0.3 SSE 6 7 3 4 1024.6 1024.0 0.0
15/03:00am 7.8 5.9 7.7 99 0.0 SE 7 9 4 5 1024.9 1024.2 0.0
15/02:30am 6.8 6.0 6.4 97 0.2 CALM 0 0 0 0 1025.2 1024.5 0.0
15/02:00am 6.0 3.8 5.3 95 0.3 N 6 9 3 5 1025.4 1024.8 0.0
15/01:52am 5.8 4.3 4.9 94 0.4 E 2 9 1 5 1025.5 1024.9 0.0
15/01:30am 6.6 5.6 5.6 93 0.5 CALM 0 0 0 0 1025.5 1024.9 0.0
15/01:00am 7.0 6.0 5.5 90 0.7 CALM 0 0 0 0 1025.9 1025.3 0.0
15/12:30am 7.5 5.4 5.8 89 0.8 E 6 7 3 4 1026.0 1025.4 0.0
15/12:00am 8.1 5.1 5.9 86 1.0 SE 11 13 6 7 1025.9 1025.3 0.0
 
Date/Time
EDT
Temp
°C
App
Temp
°C
Dew
Point
°C
Rel
Hum
%
Delta-T
°C
Wind Press
QNH
hPa
Press
MSL
hPa
Rain since
9am
mm
Dir  Spd
km/h
Gust
km/h
Spd
kts
Gust
kts
14/11:31pm 10.2 8.4 7.8 85 1.2 ESE 7 11 4 6 1026.0 1025.4 0.0
14/11:30pm 10.2 8.4 7.8 85 1.2 ESE 7 11 4 6 1026.0 1025.4 0.0
14/11:00pm 10.4 8.2 7.8 84 1.3 ENE 9 13 5 7 1026.1 1025.5 0.0
14/10:30pm 10.4 8.2 7.8 84 1.3 ENE 9 13 5 7 1026.2 1025.6 0.0
14/10:00pm 10.4 7.4 7.8 84 1.3 ENE 13 20 7 11 1026.1 1025.5 0.0
14/09:30pm 10.5 7.5 7.7 83 1.4 ENE 13 19 7 10 1026.1 1025.5 0.0
14/09:00pm 10.6 7.2 7.7 82 1.4 E 15 20 8 11 1025.9 1025.3 0.0
14/08:30pm 10.7 7.7 7.6 81 1.5 ESE 13 17 7 9 1025.8 1025.2 0.0
14/08:00pm 10.8 7.8 7.7 81 1.5 E 13 17 7 9 1025.5 1024.9 0.0
14/07:55pm 10.8 7.8 7.7 81 1.6 E 13 17 7 9 1025.5 1024.9 0.0
14/07:30pm 10.7 7.7 7.8 82 1.5 ENE 13 17 7 9 1025.1 1024.4 0.0
14/07:24pm 10.7 7.3 7.8 82 1.5 ENE 15 19 8 10 1025.0 1024.3 0.0
14/07:00pm 10.9 7.1 7.6 80 1.6 E 17 22 9 12 1025.0 1024.3 0.0

Latest Capital City Observations: Canberra | Sydney | Melbourne | Brisbane | Adelaide | Perth | Hobart | Darwin

Other Formats:

Comma delimited format used in spreadsheet applications
http://www.bom.gov.au/fwo/IDN60903/IDN60903.95716.axf

JavaScript Object Notation format (JSON) in row-major order
http://www.bom.gov.au/fwo/IDN60903/IDN60903.95716.json